Map

Track Data

SID SEASON NUMBER BASIN SUBBASIN NAME ISO_TIME NATURE LAT LON WMO_WIND WMO_PRES WMO_AGENCY TRACK_TYPE DIST2LAND LANDFALL IFLAG USA_AGENCY USA_ATCF_ID USA_LAT USA_LON USA_RECORD USA_STATUS USA_WIND USA_PRES USA_SSHS USA_R34_NE USA_R34_SE USA_R34_SW USA_R34_NW USA_R50_NE USA_R50_SE USA_R50_SW USA_R50_NW USA_R64_NE USA_R64_SE USA_R64_SW USA_R64_NW USA_POCI USA_ROCI USA_RMW USA_EYE TOKYO_LAT TOKYO_LON TOKYO_GRADE TOKYO_WIND TOKYO_PRES TOKYO_R50_DIR TOKYO_R50_LONG TOKYO_R50_SHORT TOKYO_R30_DIR TOKYO_R30_LONG TOKYO_R30_SHORT TOKYO_LAND CMA_LAT CMA_LON CMA_CAT CMA_WIND CMA_PRES HKO_LAT HKO_LON HKO_CAT HKO_WIND HKO_PRES NEWDELHI_LAT NEWDELHI_LON NEWDELHI_GRADE NEWDELHI_WIND NEWDELHI_PRES NEWDELHI_CI NEWDELHI_DP NEWDELHI_POCI REUNION_LAT REUNION_LON REUNION_TYPE REUNION_WIND REUNION_PRES REUNION_TNUM REUNION_CI REUNION_RMW REUNION_R34_NE REUNION_R34_SE REUNION_R34_SW REUNION_R34_NW REUNION_R50_NE REUNION_R50_SE REUNION_R50_SW REUNION_R50_NW REUNION_R64_NE REUNION_R64_SE REUNION_R64_SW REUNION_R64_NW BOM_LAT BOM_LON BOM_TYPE BOM_WIND BOM_PRES BOM_TNUM BOM_CI BOM_RMW BOM_R34_NE BOM_R34_SE BOM_R34_SW BOM_R34_NW BOM_R50_NE BOM_R50_SE BOM_R50_SW BOM_R50_NW BOM_R64_NE BOM_R64_SE BOM_R64_SW BOM_R64_NW BOM_ROCI BOM_POCI BOM_EYE BOM_POS_METHOD BOM_PRES_METHOD NADI_LAT NADI_LON NADI_CAT NADI_WIND NADI_PRES WELLINGTON_LAT WELLINGTON_LON WELLINGTON_WIND WELLINGTON_PRES DS824_LAT DS824_LON DS824_STAGE DS824_WIND DS824_PRES TD9636_LAT TD9636_LON TD9636_STAGE TD9636_WIND TD9636_PRES TD9635_LAT TD9635_LON TD9635_WIND TD9635_PRES TD9635_ROCI NEUMANN_LAT NEUMANN_LON NEUMANN_CLASS NEUMANN_WIND NEUMANN_PRES MLC_LAT MLC_LON MLC_CLASS MLC_WIND MLC_PRES USA_GUST BOM_GUST BOM_GUST_PER REUNION_GUST REUNION_GUST_PER USA_SEAHGT USA_SEARAD_NE USA_SEARAD_SE USA_SEARAD_SW USA_SEARAD_NW STORM_SPEED STORM_DIR
1910266N17116 1910 41 WP MM NOT_NAMED 1910-09-22 16:00:00 NR 17.4000 115.600 main 463 453 __________O___ -1 17.4000 115.600 2 3 111
1910266N17116 1910 41 WP MM NOT_NAMED 1910-09-22 18:00:00 NR 17.3599 115.712 main 453 440 __________P___ -1 17.3599 115.712 2 3 106
1910266N17116 1910 41 WP MM NOT_NAMED 1910-09-22 21:00:00 NR 17.3336 115.838 main 440 430 __________P___ -1 17.3336 115.838 2 1 76
1910266N17116 1910 41 WP MM NOT_NAMED 1910-09-23 00:00:00 NR 17.3941 115.856 main 433 433 __________P___ -1 17.3941 115.856 2 3 333
1910266N17116 1910 41 WP MM NOT_NAMED 1910-09-23 03:00:00 NR 17.5936 115.701 main 459 459 __________P___ -1 17.5936 115.701 2 6 321
1910266N17116 1910 41 WP MM NOT_NAMED 1910-09-23 04:00:00 NR 17.7000 115.600 main 473 473 __________O___ -1 17.7000 115.600 2 11 316
1910266N17116 1910 41 WP MM NOT_NAMED 1910-09-23 06:00:00 NR 17.9765 115.315 main 486 407 __________P___ -1 17.9765 115.315 2 14 314
1910266N17116 1910 41 WP MM NOT_NAMED 1910-09-23 09:00:00 NR 18.4989 114.722 main 407 319 __________P___ -1 18.4989 114.722 2 17 311
1910266N17116 1910 41 WP MM NOT_NAMED 1910-09-23 12:00:00 NR 19.0612 114.005 main 319 230 __________P___ -1 19.0612 114.005 2 18 307
1910266N17116 1910 41 WP MM NOT_NAMED 1910-09-23 15:00:00 NR 19.5632 113.247 main 230 209 __________P___ -1 19.5632 113.247 2 17 304
1910266N17116 1910 41 WP MM NOT_NAMED 1910-09-23 16:00:00 NR 19.7000 113.000 main 209 170 __________O___ -1 19.7000 113.000 2 15 298
1910266N17116 1910 41 WP MM NOT_NAMED 1910-09-23 18:00:00 NR 19.9053 112.566 main 170 106 __________P___ -1 19.9053 112.566 2 13 293
1910266N17116 1910 41 WP MM NOT_NAMED 1910-09-23 21:00:00 NR 20.1199 111.923 main 106 53 __________P___ -1 20.1199 111.923 2 12 285
1910266N17116 1910 41 WP MM NOT_NAMED 1910-09-24 00:00:00 NR 20.2250 111.296 main 53 11 __________P___ -1 20.2250 111.296 2 12 275
1910266N17116 1910 41 WP MM NOT_NAMED 1910-09-24 03:00:00 NR 20.2236 110.694 main 11 11 __________P___ -1 20.2236 110.694 2 11 268
1910266N17116 1910 41 WP MM NOT_NAMED 1910-09-24 04:00:00 NR 20.2000 110.500 main 15 0 __________O___ -1 20.2000 110.500 2 11 260
1910266N17116 1910 41 WP MM NOT_NAMED 1910-09-24 06:00:00 NR 20.1319 110.126 main 11 0 __________P___ -1 20.1319 110.126 2 11 253
1910266N17116 1910 41 WP MM NOT_NAMED 1910-09-24 09:00:00 NR 19.9420 109.592 main 0 0 __________P___ -1 19.9420 109.592 2 11 246
1910266N17116 1910 41 WP MM NOT_NAMED 1910-09-24 12:00:00 NR 19.6829 109.077 main 10 0 __________P___ -1 19.6829 109.077 2 11 240
1910266N17116 1910 41 WP MM NOT_NAMED 1910-09-24 15:00:00 NR 19.3953 108.570 main 10 10 __________P___ -1 19.3953 108.570 2 11 239
1910266N17116 1910 41 WP MM NOT_NAMED 1910-09-24 16:00:00 NR 19.3000 108.400 main 20 20 __________O___ -1 19.3000 108.400 2 11 240
1910266N17116 1910 41 WP MM NOT_NAMED 1910-09-24 18:00:00 NR 19.1170 108.057 main 57 66 __________P___ -1 19.1170 108.057 2 11 242
1910266N17116 1910 41 WP MM NOT_NAMED 1910-09-24 21:00:00 NR 18.8591 107.535 main 123 84 __________P___ -1 18.8591 107.535 2 11 243
1910266N17116 1910 41 WP MM NOT_NAMED 1910-09-25 00:00:00 NR 18.6151 107.007 main 84 30 __________P___ -1 18.6151 107.007 2 11 244
1910266N17116 1910 41 WP MM NOT_NAMED 1910-09-25 03:00:00 NR 18.3784 106.477 main 30 11 __________P___ -1 18.3784 106.477 2 11 245
1910266N17116 1910 41 WP MM NOT_NAMED 1910-09-25 04:00:00 NR 18.3000 106.300 main 11 __________O___ -1 18.3000 106.300 2 11 245

Digital Typhoon Data and Search

About IBTrACS Database

This database is a web-friendly format of International Best Track Archive for Climate Stewardship (IBTrACS), a global best track data archive curated by NOAA dating back to 1842.

Updated: 2021-10-08